sensor_id;sensor_type;location;lat;lon;timestamp;temperature;humidity
33955;DHT22;20233;50.804;7.126;2023-07-22T00:00:10;14.90;99.90
33955;DHT22;20233;50.804;7.126;2023-07-22T00:02:40;14.90;99.90
33955;DHT22;20233;50.804;7.126;2023-07-22T00:05:06;14.90;99.90
33955;DHT22;20233;50.804;7.126;2023-07-22T00:07:32;14.80;99.90
33955;DHT22;20233;50.804;7.126;2023-07-22T00:09:57;14.80;99.90
33955;DHT22;20233;50.804;7.126;2023-07-22T00:12:23;14.80;99.90
33955;DHT22;20233;50.804;7.126;2023-07-22T00:14:51;14.80;99.90
33955;DHT22;20233;50.804;7.126;2023-07-22T00:17:17;14.80;99.90
33955;DHT22;20233;50.804;7.126;2023-07-22T00:19:42;14.80;99.90
33955;DHT22;20233;50.804;7.126;2023-07-22T00:22:08;14.70;99.90
33955;DHT22;20233;50.804;7.126;2023-07-22T00:24:33;14.70;99.90
33955;DHT22;20233;50.804;7.126;2023-07-22T00:26:59;14.70;99.90
33955;DHT22;20233;50.804;7.126;2023-07-22T00:29:24;14.60;99.90
33955;DHT22;20233;50.804;7.126;2023-07-22T00:31:50;14.60;99.90
33955;DHT22;20233;50.804;7.126;2023-07-22T00:34:15;14.50;99.90
33955;DHT22;20233;50.804;7.126;2023-07-22T00:36:41;14.50;99.90
33955;DHT22;20233;50.804;7.126;2023-07-22T00:39:07;14.50;99.90
33955;DHT22;20233;50.804;7.126;2023-07-22T00:41:32;14.40;99.90
33955;DHT22;20233;50.804;7.126;2023-07-22T00:43:58;14.40;99.90
33955;DHT22;20233;50.804;7.126;2023-07-22T00:46:23;14.40;99.90
33955;DHT22;20233;50.804;7.126;2023-07-22T00:48:50;14.40;99.90
33955;DHT22;20233;50.804;7.126;2023-07-22T00:51:17;14.30;99.90
33955;DHT22;20233;50.804;7.126;2023-07-22T00:53:42;14.30;99.90
33955;DHT22;20233;50.804;7.126;2023-07-22T00:56:08;14.30;99.90
33955;DHT22;20233;50.804;7.126;2023-07-22T00:58:34;14.30;99.90
33955;DHT22;20233;50.804;7.126;2023-07-22T01:00:59;14.30;99.90
33955;DHT22;20233;50.804;7.126;2023-07-22T01:03:25;14.30;99.90
33955;DHT22;20233;50.804;7.126;2023-07-22T01:05:51;14.30;99.90
33955;DHT22;20233;50.804;7.126;2023-07-22T01:08:17;14.30;99.90
33955;DHT22;20233;50.804;7.126;2023-07-22T01:10:42;14.20;99.90
33955;DHT22;20233;50.804;7.126;2023-07-22T01:13:08;14.20;99.90
33955;DHT22;20233;50.804;7.126;2023-07-22T01:15:34;14.10;99.90
33955;DHT22;20233;50.804;7.126;2023-07-22T01:18:00;14.20;99.90
33955;DHT22;20233;50.804;7.126;2023-07-22T01:20:29;14.10;99.90
33955;DHT22;20233;50.804;7.126;2023-07-22T01:22:55;14.10;99.90
33955;DHT22;20233;50.804;7.126;2023-07-22T01:25:21;14.10;99.90
33955;DHT22;20233;50.804;7.126;2023-07-22T01:27:48;14.00;99.90
33955;DHT22;20233;50.804;7.126;2023-07-22T01:30:13;14.00;99.90
33955;DHT22;20233;50.804;7.126;2023-07-22T01:32:39;13.90;99.90
33955;DHT22;20233;50.804;7.126;2023-07-22T01:35:05;13.90;99.90
33955;DHT22;20233;50.804;7.126;2023-07-22T01:37:33;13.90;99.90
33955;DHT22;20233;50.804;7.126;2023-07-22T01:39:59;13.90;99.90
33955;DHT22;20233;50.804;7.126;2023-07-22T01:42:24;13.90;99.90
33955;DHT22;20233;50.804;7.126;2023-07-22T01:44:50;13.90;99.90
33955;DHT22;20233;50.804;7.126;2023-07-22T01:47:15;13.90;99.90
33955;DHT22;20233;50.804;7.126;2023-07-22T01:49:41;13.90;99.90
33955;DHT22;20233;50.804;7.126;2023-07-22T01:52:07;13.80;99.90
33955;DHT22;20233;50.804;7.126;2023-07-22T01:54:33;13.80;99.90
33955;DHT22;20233;50.804;7.126;2023-07-22T01:56:58;13.80;99.90
33955;DHT22;20233;50.804;7.126;2023-07-22T01:59:24;13.80;99.90
33955;DHT22;20233;50.804;7.126;2023-07-22T02:01:50;13.80;99.90
33955;DHT22;20233;50.804;7.126;2023-07-22T02:04:15;13.80;99.90
33955;DHT22;20233;50.804;7.126;2023-07-22T02:06:41;13.70;99.90
33955;DHT22;20233;50.804;7.126;2023-07-22T02:09:07;13.70;99.90
33955;DHT22;20233;50.804;7.126;2023-07-22T02:11:37;13.70;99.90
33955;DHT22;20233;50.804;7.126;2023-07-22T02:14:03;13.70;99.90
33955;DHT22;20233;50.804;7.126;2023-07-22T02:16:36;13.70;99.90
33955;DHT22;20233;50.804;7.126;2023-07-22T02:19:03;13.70;99.90
33955;DHT22;20233;50.804;7.126;2023-07-22T02:21:28;13.70;99.90
33955;DHT22;20233;50.804;7.126;2023-07-22T02:23:54;13.70;99.90
33955;DHT22;20233;50.804;7.126;2023-07-22T02:26:19;13.80;99.90
33955;DHT22;20233;50.804;7.126;2023-07-22T02:28:45;13.80;99.90
33955;DHT22;20233;50.804;7.126;2023-07-22T02:31:12;13.80;99.90
33955;DHT22;20233;50.804;7.126;2023-07-22T02:33:37;13.80;99.90
33955;DHT22;20233;50.804;7.126;2023-07-22T02:36:03;13.80;99.90
33955;DHT22;20233;50.804;7.126;2023-07-22T02:38:29;13.80;99.90
33955;DHT22;20233;50.804;7.126;2023-07-22T02:40:54;13.80;99.90
33955;DHT22;20233;50.804;7.126;2023-07-22T02:43:20;13.80;99.90
33955;DHT22;20233;50.804;7.126;2023-07-22T02:45:46;13.80;99.90
33955;DHT22;20233;50.804;7.126;2023-07-22T02:48:11;13.80;99.90
33955;DHT22;20233;50.804;7.126;2023-07-22T02:50:37;13.80;99.90
33955;DHT22;20233;50.804;7.126;2023-07-22T02:53:02;13.80;99.90
33955;DHT22;20233;50.804;7.126;2023-07-22T02:55:28;13.80;99.90
33955;DHT22;20233;50.804;7.126;2023-07-22T02:57:54;13.80;99.90
33955;DHT22;20233;50.804;7.126;2023-07-22T03:00:20;13.70;99.90
33955;DHT22;20233;50.804;7.126;2023-07-22T03:02:52;13.70;99.90
33955;DHT22;20233;50.804;7.126;2023-07-22T03:05:19;13.60;99.90
33955;DHT22;20233;50.804;7.126;2023-07-22T03:07:44;13.60;99.90
33955;DHT22;20233;50.804;7.126;2023-07-22T03:10:10;13.60;99.90
33955;DHT22;20233;50.804;7.126;2023-07-22T03:12:36;13.60;99.90
33955;DHT22;20233;50.804;7.126;2023-07-22T03:15:02;13.50;99.90
33955;DHT22;20233;50.804;7.126;2023-07-22T03:17:29;13.50;99.90
33955;DHT22;20233;50.804;7.126;2023-07-22T03:19:55;13.40;99.90
33955;DHT22;20233;50.804;7.126;2023-07-22T03:22:20;13.40;99.90
33955;DHT22;20233;50.804;7.126;2023-07-22T03:24:46;13.40;99.90
33955;DHT22;20233;50.804;7.126;2023-07-22T03:27:12;13.40;99.90
33955;DHT22;20233;50.804;7.126;2023-07-22T03:29:38;13.40;99.90
33955;DHT22;20233;50.804;7.126;2023-07-22T03:32:05;13.40;99.90
33955;DHT22;20233;50.804;7.126;2023-07-22T03:34:31;13.40;99.90
33955;DHT22;20233;50.804;7.126;2023-07-22T03:36:57;13.40;99.90
33955;DHT22;20233;50.804;7.126;2023-07-22T03:39:22;13.50;99.90
33955;DHT22;20233;50.804;7.126;2023-07-22T03:41:48;13.50;99.90
33955;DHT22;20233;50.804;7.126;2023-07-22T03:44:13;13.50;99.90
33955;DHT22;20233;50.804;7.126;2023-07-22T03:46:39;13.50;99.90
33955;DHT22;20233;50.804;7.126;2023-07-22T03:49:05;13.50;99.90
33955;DHT22;20233;50.804;7.126;2023-07-22T03:51:31;13.50;99.90
33955;DHT22;20233;50.804;7.126;2023-07-22T03:53:57;13.60;99.90
33955;DHT22;20233;50.804;7.126;2023-07-22T03:56:23;13.60;99.90
33955;DHT22;20233;50.804;7.126;2023-07-22T03:58:51;13.50;99.90
33955;DHT22;20233;50.804;7.126;2023-07-22T04:01:18;13.60;99.90
33955;DHT22;20233;50.804;7.126;2023-07-22T04:03:43;13.50;99.90
33955;DHT22;20233;50.804;7.126;2023-07-22T04:06:09;13.50;99.90
33955;DHT22;20233;50.804;7.126;2023-07-22T04:08:34;13.50;99.90
33955;DHT22;20233;50.804;7.126;2023-07-22T04:11:00;13.50;99.90
33955;DHT22;20233;50.804;7.126;2023-07-22T04:13:27;13.50;99.90
33955;DHT22;20233;50.804;7.126;2023-07-22T04:15:53;13.50;99.90
33955;DHT22;20233;50.804;7.126;2023-07-22T04:18:19;13.60;99.90
33955;DHT22;20233;50.804;7.126;2023-07-22T04:20:46;13.60;99.90
33955;DHT22;20233;50.804;7.126;2023-07-22T04:23:13;13.60;99.90
33955;DHT22;20233;50.804;7.126;2023-07-22T04:25:43;13.70;99.90
33955;DHT22;20233;50.804;7.126;2023-07-22T04:28:09;13.70;99.90
33955;DHT22;20233;50.804;7.126;2023-07-22T04:30:35;13.70;99.90
33955;DHT22;20233;50.804;7.126;2023-07-22T04:33:01;13.80;99.90
33955;DHT22;20233;50.804;7.126;2023-07-22T04:35:27;13.80;99.90
33955;DHT22;20233;50.804;7.126;2023-07-22T04:37:55;13.80;99.90
33955;DHT22;20233;50.804;7.126;2023-07-22T04:40:20;13.80;99.90
33955;DHT22;20233;50.804;7.126;2023-07-22T04:42:45;13.90;99.90
33955;DHT22;20233;50.804;7.126;2023-07-22T04:45:11;13.90;99.90
33955;DHT22;20233;50.804;7.126;2023-07-22T04:47:38;14.00;99.90
33955;DHT22;20233;50.804;7.126;2023-07-22T04:50:07;14.00;99.90
33955;DHT22;20233;50.804;7.126;2023-07-22T04:52:36;14.00;99.90
33955;DHT22;20233;50.804;7.126;2023-07-22T04:55:03;14.00;99.90
33955;DHT22;20233;50.804;7.126;2023-07-22T04:57:35;14.00;99.90
33955;DHT22;20233;50.804;7.126;2023-07-22T05:00:02;14.00;99.90
33955;DHT22;20233;50.804;7.126;2023-07-22T05:02:29;14.00;99.90
33955;DHT22;20233;50.804;7.126;2023-07-22T05:04:56;14.10;99.90
33955;DHT22;20233;50.804;7.126;2023-07-22T05:07:21;14.20;99.90
33955;DHT22;20233;50.804;7.126;2023-07-22T05:09:47;14.20;99.90
33955;DHT22;20233;50.804;7.126;2023-07-22T05:12:13;14.20;99.90
33955;DHT22;20233;50.804;7.126;2023-07-22T05:14:38;14.30;99.90
33955;DHT22;20233;50.804;7.126;2023-07-22T05:17:04;14.30;99.90
33955;DHT22;20233;50.804;7.126;2023-07-22T05:19:29;14.30;99.90
33955;DHT22;20233;50.804;7.126;2023-07-22T05:21:55;14.30;99.90
33955;DHT22;20233;50.804;7.126;2023-07-22T05:24:20;14.30;99.90
33955;DHT22;20233;50.804;7.126;2023-07-22T05:26:46;14.40;99.90
33955;DHT22;20233;50.804;7.126;2023-07-22T05:29:12;14.50;99.90
33955;DHT22;20233;50.804;7.126;2023-07-22T05:31:38;14.50;99.90
33955;DHT22;20233;50.804;7.126;2023-07-22T05:34:03;14.50;99.90
33955;DHT22;20233;50.804;7.126;2023-07-22T05:36:29;14.50;99.90
33955;DHT22;20233;50.804;7.126;2023-07-22T05:38:58;14.50;99.90
33955;DHT22;20233;50.804;7.126;2023-07-22T05:41:24;14.60;99.90
33955;DHT22;20233;50.804;7.126;2023-07-22T05:43:49;14.60;99.90
33955;DHT22;20233;50.804;7.126;2023-07-22T05:46:15;14.70;99.90
33955;DHT22;20233;50.804;7.126;2023-07-22T05:48:40;14.80;99.90
33955;DHT22;20233;50.804;7.126;2023-07-22T05:51:06;14.80;99.90
33955;DHT22;20233;50.804;7.126;2023-07-22T05:53:32;14.90;99.90
33955;DHT22;20233;50.804;7.126;2023-07-22T05:55:58;15.00;99.90
33955;DHT22;20233;50.804;7.126;2023-07-22T05:58:24;15.10;99.90
33955;DHT22;20233;50.804;7.126;2023-07-22T06:00:50;15.10;99.90
33955;DHT22;20233;50.804;7.126;2023-07-22T06:03:17;15.30;99.90
33955;DHT22;20233;50.804;7.126;2023-07-22T06:05:43;15.30;99.90
33955;DHT22;20233;50.804;7.126;2023-07-22T06:08:08;15.40;99.90
33955;DHT22;20233;50.804;7.126;2023-07-22T06:10:34;15.50;99.90
33955;DHT22;20233;50.804;7.126;2023-07-22T06:13:00;15.60;99.90
33955;DHT22;20233;50.804;7.126;2023-07-22T06:15:26;15.60;99.90
33955;DHT22;20233;50.804;7.126;2023-07-22T06:17:51;15.60;99.90
33955;DHT22;20233;50.804;7.126;2023-07-22T06:20:17;15.70;99.90
33955;DHT22;20233;50.804;7.126;2023-07-22T06:22:42;15.80;99.90
33955;DHT22;20233;50.804;7.126;2023-07-22T06:25:08;15.90;99.90
33955;DHT22;20233;50.804;7.126;2023-07-22T06:27:34;16.00;99.90
33955;DHT22;20233;50.804;7.126;2023-07-22T06:30:01;16.10;99.90
33955;DHT22;20233;50.804;7.126;2023-07-22T06:32:27;16.10;99.90
33955;DHT22;20233;50.804;7.126;2023-07-22T06:34:56;16.20;99.90
33955;DHT22;20233;50.804;7.126;2023-07-22T06:37:22;16.40;99.90
33955;DHT22;20233;50.804;7.126;2023-07-22T06:39:48;16.50;99.90
33955;DHT22;20233;50.804;7.126;2023-07-22T06:42:13;16.60;99.90
33955;DHT22;20233;50.804;7.126;2023-07-22T06:44:39;16.60;99.90
33955;DHT22;20233;50.804;7.126;2023-07-22T06:47:05;16.70;99.90
33955;DHT22;20233;50.804;7.126;2023-07-22T06:49:30;16.70;99.90
33955;DHT22;20233;50.804;7.126;2023-07-22T06:51:56;16.80;99.90
33955;DHT22;20233;50.804;7.126;2023-07-22T06:54:21;16.80;99.90
33955;DHT22;20233;50.804;7.126;2023-07-22T06:56:47;17.00;99.90
33955;DHT22;20233;50.804;7.126;2023-07-22T06:59:13;17.10;99.90
33955;DHT22;20233;50.804;7.126;2023-07-22T07:01:38;17.10;99.90
33955;DHT22;20233;50.804;7.126;2023-07-22T07:04:04;17.20;99.90
33955;DHT22;20233;50.804;7.126;2023-07-22T07:06:29;17.30;99.90
33955;DHT22;20233;50.804;7.126;2023-07-22T07:08:55;17.40;99.90
33955;DHT22;20233;50.804;7.126;2023-07-22T07:11:21;17.50;99.90
33955;DHT22;20233;50.804;7.126;2023-07-22T07:13:46;17.50;99.90
33955;DHT22;20233;50.804;7.126;2023-07-22T07:16:23;17.60;99.90
33955;DHT22;20233;50.804;7.126;2023-07-22T07:18:49;17.70;99.90
33955;DHT22;20233;50.804;7.126;2023-07-22T07:21:16;17.80;99.90
33955;DHT22;20233;50.804;7.126;2023-07-22T07:23:41;17.90;99.90
33955;DHT22;20233;50.804;7.126;2023-07-22T07:26:08;18.00;99.90
33955;DHT22;20233;50.804;7.126;2023-07-22T07:28:33;18.10;99.90
33955;DHT22;20233;50.804;7.126;2023-07-22T07:30:59;18.20;99.90
33955;DHT22;20233;50.804;7.126;2023-07-22T07:33:25;18.30;99.90
33955;DHT22;20233;50.804;7.126;2023-07-22T07:35:51;18.30;99.90
33955;DHT22;20233;50.804;7.126;2023-07-22T07:38:16;18.60;99.90
33955;DHT22;20233;50.804;7.126;2023-07-22T07:40:42;18.60;99.90
33955;DHT22;20233;50.804;7.126;2023-07-22T07:43:08;18.70;99.90
33955;DHT22;20233;50.804;7.126;2023-07-22T07:45:37;18.70;99.90
33955;DHT22;20233;50.804;7.126;2023-07-22T07:48:04;18.60;99.90
33955;DHT22;20233;50.804;7.126;2023-07-22T07:50:29;18.70;99.90
33955;DHT22;20233;50.804;7.126;2023-07-22T07:52:55;18.90;99.90
33955;DHT22;20233;50.804;7.126;2023-07-22T07:55:20;19.00;99.90
33955;DHT22;20233;50.804;7.126;2023-07-22T07:57:46;19.20;99.90
33955;DHT22;20233;50.804;7.126;2023-07-22T08:00:13;19.10;99.90
33955;DHT22;20233;50.804;7.126;2023-07-22T08:02:38;19.00;99.90
33955;DHT22;20233;50.804;7.126;2023-07-22T08:05:04;19.00;99.90
33955;DHT22;20233;50.804;7.126;2023-07-22T08:07:31;19.20;99.90
33955;DHT22;20233;50.804;7.126;2023-07-22T08:09:56;19.20;99.90
33955;DHT22;20233;50.804;7.126;2023-07-22T08:12:23;19.50;99.90
33955;DHT22;20233;50.804;7.126;2023-07-22T08:14:49;19.70;99.90
33955;DHT22;20233;50.804;7.126;2023-07-22T08:17:14;19.70;99.90
33955;DHT22;20233;50.804;7.126;2023-07-22T08:19:40;19.70;99.90
33955;DHT22;20233;50.804;7.126;2023-07-22T08:22:05;19.80;99.90
33955;DHT22;20233;50.804;7.126;2023-07-22T08:24:32;19.60;99.90
33955;DHT22;20233;50.804;7.126;2023-07-22T08:26:58;19.40;99.90
33955;DHT22;20233;50.804;7.126;2023-07-22T08:29:24;19.70;99.90
33955;DHT22;20233;50.804;7.126;2023-07-22T08:31:49;19.80;99.90
33955;DHT22;20233;50.804;7.126;2023-07-22T08:34:16;20.20;99.90
33955;DHT22;20233;50.804;7.126;2023-07-22T08:36:42;20.30;99.90
33955;DHT22;20233;50.804;7.126;2023-07-22T08:39:07;20.40;99.90
33955;DHT22;20233;50.804;7.126;2023-07-22T08:41:33;20.40;99.90
33955;DHT22;20233;50.804;7.126;2023-07-22T08:44:00;20.40;99.90
33955;DHT22;20233;50.804;7.126;2023-07-22T08:46:29;20.50;99.90
33955;DHT22;20233;50.804;7.126;2023-07-22T08:48:59;20.80;99.90
33955;DHT22;20233;50.804;7.126;2023-07-22T08:51:26;20.90;99.90
33955;DHT22;20233;50.804;7.126;2023-07-22T08:53:54;21.00;99.90
33955;DHT22;20233;50.804;7.126;2023-07-22T08:56:23;21.00;99.90
33955;DHT22;20233;50.804;7.126;2023-07-22T08:58:51;21.00;99.90
33955;DHT22;20233;50.804;7.126;2023-07-22T09:01:18;21.30;99.90
33955;DHT22;20233;50.804;7.126;2023-07-22T09:03:44;21.40;99.90
33955;DHT22;20233;50.804;7.126;2023-07-22T09:06:12;21.50;99.90
33955;DHT22;20233;50.804;7.126;2023-07-22T09:08:38;21.50;99.90
33955;DHT22;20233;50.804;7.126;2023-07-22T09:11:04;21.70;99.90
33955;DHT22;20233;50.804;7.126;2023-07-22T09:13:30;21.70;99.90
33955;DHT22;20233;50.804;7.126;2023-07-22T09:15:57;21.80;99.90
33955;DHT22;20233;50.804;7.126;2023-07-22T09:18:23;21.70;99.90
33955;DHT22;20233;50.804;7.126;2023-07-22T09:20:49;21.70;99.90
33955;DHT22;20233;50.804;7.126;2023-07-22T09:23:16;21.40;99.90
33955;DHT22;20233;50.804;7.126;2023-07-22T09:25:42;21.80;99.90
33955;DHT22;20233;50.804;7.126;2023-07-22T09:28:07;21.90;99.90
33955;DHT22;20233;50.804;7.126;2023-07-22T09:30:35;21.70;99.90
33955;DHT22;20233;50.804;7.126;2023-07-22T09:33:02;21.90;99.90
33955;DHT22;20233;50.804;7.126;2023-07-22T09:35:30;22.10;99.90
33955;DHT22;20233;50.804;7.126;2023-07-22T09:37:56;22.00;99.90
33955;DHT22;20233;50.804;7.126;2023-07-22T09:40:26;22.10;99.90
33955;DHT22;20233;50.804;7.126;2023-07-22T09:42:56;22.20;99.90
33955;DHT22;20233;50.804;7.126;2023-07-22T09:45:24;22.40;99.90
33955;DHT22;20233;50.804;7.126;2023-07-22T09:47:52;22.40;99.90
33955;DHT22;20233;50.804;7.126;2023-07-22T09:50:19;22.40;99.90
33955;DHT22;20233;50.804;7.126;2023-07-22T09:52:51;22.50;99.90
33955;DHT22;20233;50.804;7.126;2023-07-22T09:55:20;22.30;99.90
33955;DHT22;20233;50.804;7.126;2023-07-22T09:57:48;22.20;99.90
33955;DHT22;20233;50.804;7.126;2023-07-22T10:00:16;22.40;99.90
33955;DHT22;20233;50.804;7.126;2023-07-22T10:02:43;22.40;99.90
33955;DHT22;20233;50.804;7.126;2023-07-22T10:05:13;22.50;99.90
33955;DHT22;20233;50.804;7.126;2023-07-22T10:07:42;22.50;99.90
33955;DHT22;20233;50.804;7.126;2023-07-22T10:10:09;22.30;99.90
33955;DHT22;20233;50.804;7.126;2023-07-22T10:12:34;22.50;99.90
33955;DHT22;20233;50.804;7.126;2023-07-22T10:15:00;22.70;99.90
33955;DHT22;20233;50.804;7.126;2023-07-22T10:17:28;22.40;99.90
33955;DHT22;20233;50.804;7.126;2023-07-22T10:19:55;22.60;99.90
33955;DHT22;20233;50.804;7.126;2023-07-22T10:22:21;22.00;99.90
33955;DHT22;20233;50.804;7.126;2023-07-22T10:24:47;22.30;99.90
33955;DHT22;20233;50.804;7.126;2023-07-22T10:27:14;22.80;99.90
33955;DHT22;20233;50.804;7.126;2023-07-22T10:29:41;22.80;99.90
33955;DHT22;20233;50.804;7.126;2023-07-22T10:32:07;22.70;99.90
33955;DHT22;20233;50.804;7.126;2023-07-22T10:34:32;22.60;99.90
33955;DHT22;20233;50.804;7.126;2023-07-22T10:36:58;22.70;99.90
33955;DHT22;20233;50.804;7.126;2023-07-22T10:39:27;23.20;99.90
33955;DHT22;20233;50.804;7.126;2023-07-22T10:42:06;23.40;99.90
33955;DHT22;20233;50.804;7.126;2023-07-22T10:44:36;23.60;99.90
33955;DHT22;20233;50.804;7.126;2023-07-22T10:47:01;23.70;99.90
33955;DHT22;20233;50.804;7.126;2023-07-22T10:49:43;23.00;99.90
33955;DHT22;20233;50.804;7.126;2023-07-22T10:52:11;23.40;99.90
33955;DHT22;20233;50.804;7.126;2023-07-22T10:54:38;23.50;99.90
33955;DHT22;20233;50.804;7.126;2023-07-22T10:57:25;23.90;99.90
33955;DHT22;20233;50.804;7.126;2023-07-22T11:02:26;24.00;99.90
33955;DHT22;20233;50.804;7.126;2023-07-22T11:04:52;24.00;99.90
33955;DHT22;20233;50.804;7.126;2023-07-22T11:07:34;23.70;99.90
33955;DHT22;20233;50.804;7.126;2023-07-22T11:10:14;24.00;99.90
33955;DHT22;20233;50.804;7.126;2023-07-22T11:12:43;24.00;99.90
33955;DHT22;20233;50.804;7.126;2023-07-22T11:15:09;24.10;99.90
33955;DHT22;20233;50.804;7.126;2023-07-22T11:17:35;24.40;99.90
33955;DHT22;20233;50.804;7.126;2023-07-22T11:20:01;24.50;99.90
33955;DHT22;20233;50.804;7.126;2023-07-22T11:22:27;24.70;99.90
33955;DHT22;20233;50.804;7.126;2023-07-22T11:24:55;25.00;99.90
33955;DHT22;20233;50.804;7.126;2023-07-22T11:27:21;25.10;99.90
33955;DHT22;20233;50.804;7.126;2023-07-22T11:29:48;25.20;99.90
33955;DHT22;20233;50.804;7.126;2023-07-22T11:32:15;24.20;99.90
33955;DHT22;20233;50.804;7.126;2023-07-22T11:34:42;24.50;99.90
33955;DHT22;20233;50.804;7.126;2023-07-22T11:37:10;24.90;99.90
33955;DHT22;20233;50.804;7.126;2023-07-22T11:39:36;25.20;99.90
33955;DHT22;20233;50.804;7.126;2023-07-22T11:42:04;25.50;99.90
33955;DHT22;20233;50.804;7.126;2023-07-22T11:44:30;25.60;99.90
33955;DHT22;20233;50.804;7.126;2023-07-22T11:47:01;25.50;99.30
33955;DHT22;20233;50.804;7.126;2023-07-22T11:49:39;25.70;99.90
33955;DHT22;20233;50.804;7.126;2023-07-22T11:52:16;25.50;97.90
33955;DHT22;20233;50.804;7.126;2023-07-22T11:54:46;24.80;96.60
33955;DHT22;20233;50.804;7.126;2023-07-22T11:57:23;24.70;96.90
33955;DHT22;20233;50.804;7.126;2023-07-22T11:59:50;24.70;96.00
33955;DHT22;20233;50.804;7.126;2023-07-22T12:02:21;25.20;99.90
33955;DHT22;20233;50.804;7.126;2023-07-22T12:05:03;25.50;99.80
33955;DHT22;20233;50.804;7.126;2023-07-22T12:07:35;25.50;96.30
33955;DHT22;20233;50.804;7.126;2023-07-22T12:10:03;26.00;98.60
33955;DHT22;20233;50.804;7.126;2023-07-22T12:15:13;26.40;96.70
33955;DHT22;20233;50.804;7.126;2023-07-22T12:17:59;26.70;97.00
33955;DHT22;20233;50.804;7.126;2023-07-22T12:22:52;27.00;96.20
33955;DHT22;20233;50.804;7.126;2023-07-22T12:25:17;26.90;95.40
33955;DHT22;20233;50.804;7.126;2023-07-22T12:27:44;26.90;94.90
33955;DHT22;20233;50.804;7.126;2023-07-22T12:32:35;26.90;95.40
33955;DHT22;20233;50.804;7.126;2023-07-22T12:35:01;27.00;97.00
33955;DHT22;20233;50.804;7.126;2023-07-22T12:37:28;27.10;96.00
33955;DHT22;20233;50.804;7.126;2023-07-22T12:39:53;26.50;93.50
33955;DHT22;20233;50.804;7.126;2023-07-22T12:42:19;26.90;94.20
33955;DHT22;20233;50.804;7.126;2023-07-22T12:47:11;27.10;93.60
33955;DHT22;20233;50.804;7.126;2023-07-22T12:49:37;27.10;93.40
33955;DHT22;20233;50.804;7.126;2023-07-22T12:52:03;27.10;93.20
33955;DHT22;20233;50.804;7.126;2023-07-22T12:54:30;27.20;94.00
33955;DHT22;20233;50.804;7.126;2023-07-22T12:56:56;27.20;93.70
33955;DHT22;20233;50.804;7.126;2023-07-22T12:59:22;26.50;91.90
33955;DHT22;20233;50.804;7.126;2023-07-22T13:01:48;27.10;93.20
33955;DHT22;20233;50.804;7.126;2023-07-22T13:04:13;27.10;93.60
33955;DHT22;20233;50.804;7.126;2023-07-22T13:09:05;27.30;90.40
33955;DHT22;20233;50.804;7.126;2023-07-22T13:11:30;27.30;90.70
33955;DHT22;20233;50.804;7.126;2023-07-22T13:13:56;27.50;93.40
33955;DHT22;20233;50.804;7.126;2023-07-22T13:16:21;27.60;91.30
33955;DHT22;20233;50.804;7.126;2023-07-22T13:18:47;27.90;92.20
33955;DHT22;20233;50.804;7.126;2023-07-22T13:21:13;27.90;91.60
33955;DHT22;20233;50.804;7.126;2023-07-22T13:23:38;27.80;91.10
33955;DHT22;20233;50.804;7.126;2023-07-22T13:26:04;28.00;91.60
33955;DHT22;20233;50.804;7.126;2023-07-22T13:28:29;28.00;90.80
33955;DHT22;20233;50.804;7.126;2023-07-22T13:30:55;28.00;90.40
33955;DHT22;20233;50.804;7.126;2023-07-22T13:33:20;28.10;90.70
33955;DHT22;20233;50.804;7.126;2023-07-22T13:38:11;28.40;90.20
33955;DHT22;20233;50.804;7.126;2023-07-22T13:40:37;28.20;87.20
33955;DHT22;20233;50.804;7.126;2023-07-22T13:43:03;28.20;90.40
33955;DHT22;20233;50.804;7.126;2023-07-22T13:45:28;27.10;82.70
33955;DHT22;20233;50.804;7.126;2023-07-22T13:47:54;27.70;88.60
33955;DHT22;20233;50.804;7.126;2023-07-22T13:50:20;28.10;89.20
33955;DHT22;20233;50.804;7.126;2023-07-22T13:52:45;28.20;88.30
33955;DHT22;20233;50.804;7.126;2023-07-22T13:55:11;28.30;88.30
33955;DHT22;20233;50.804;7.126;2023-07-22T13:57:36;28.40;89.90
33955;DHT22;20233;50.804;7.126;2023-07-22T14:00:03;28.60;89.20
33955;DHT22;20233;50.804;7.126;2023-07-22T14:02:40;28.70;88.70
33955;DHT22;20233;50.804;7.126;2023-07-22T14:05:06;28.60;86.60
33955;DHT22;20233;50.804;7.126;2023-07-22T14:07:32;28.70;88.50
33955;DHT22;20233;50.804;7.126;2023-07-22T14:09:58;28.70;87.80
33955;DHT22;20233;50.804;7.126;2023-07-22T14:12:23;28.60;87.00
33955;DHT22;20233;50.804;7.126;2023-07-22T14:14:49;28.70;83.10
33955;DHT22;20233;50.804;7.126;2023-07-22T14:17:15;28.70;83.60
33955;DHT22;20233;50.804;7.126;2023-07-22T14:19:40;28.40;82.00
33955;DHT22;20233;50.804;7.126;2023-07-22T14:22:07;27.90;81.10
33955;DHT22;20233;50.804;7.126;2023-07-22T14:24:33;28.30;83.60
33955;DHT22;20233;50.804;7.126;2023-07-22T14:26:59;28.50;83.50
33955;DHT22;20233;50.804;7.126;2023-07-22T14:29:24;28.80;85.70
33955;DHT22;20233;50.804;7.126;2023-07-22T14:34:17;28.90;84.10
33955;DHT22;20233;50.804;7.126;2023-07-22T14:36:42;29.10;82.40
33955;DHT22;20233;50.804;7.126;2023-07-22T14:39:09;29.00;82.10
33955;DHT22;20233;50.804;7.126;2023-07-22T14:41:35;29.00;84.70
33955;DHT22;20233;50.804;7.126;2023-07-22T14:44:00;29.00;81.80
33955;DHT22;20233;50.804;7.126;2023-07-22T14:46:26;29.10;84.30
33955;DHT22;20233;50.804;7.126;2023-07-22T14:48:52;29.00;81.50
33955;DHT22;20233;50.804;7.126;2023-07-22T14:51:18;29.20;82.50
33955;DHT22;20233;50.804;7.126;2023-07-22T14:53:43;29.00;83.50
33955;DHT22;20233;50.804;7.126;2023-07-22T14:56:09;29.10;82.60
33955;DHT22;20233;50.804;7.126;2023-07-22T14:58:34;29.00;81.50
33955;DHT22;20233;50.804;7.126;2023-07-22T15:01:07;29.00;81.20
33955;DHT22;20233;50.804;7.126;2023-07-22T15:03:37;29.00;82.80
33955;DHT22;20233;50.804;7.126;2023-07-22T15:06:03;29.10;83.70
33955;DHT22;20233;50.804;7.126;2023-07-22T15:08:28;28.90;83.20
33955;DHT22;20233;50.804;7.126;2023-07-22T15:10:54;28.80;80.60
33955;DHT22;20233;50.804;7.126;2023-07-22T15:13:19;29.00;81.30
33955;DHT22;20233;50.804;7.126;2023-07-22T15:15:45;28.90;80.50
33955;DHT22;20233;50.804;7.126;2023-07-22T15:18:11;28.90;80.00
33955;DHT22;20233;50.804;7.126;2023-07-22T15:20:36;28.80;82.90
33955;DHT22;20233;50.804;7.126;2023-07-22T15:23:02;28.70;83.90
33955;DHT22;20233;50.804;7.126;2023-07-22T15:25:27;28.80;80.20
33955;DHT22;20233;50.804;7.126;2023-07-22T15:27:53;28.80;83.90
33955;DHT22;20233;50.804;7.126;2023-07-22T15:30:18;28.50;78.90
33955;DHT22;20233;50.804;7.126;2023-07-22T15:32:45;28.40;81.20
33955;DHT22;20233;50.804;7.126;2023-07-22T15:35:10;28.40;82.10
33955;DHT22;20233;50.804;7.126;2023-07-22T15:37:36;28.50;82.00
33955;DHT22;20233;50.804;7.126;2023-07-22T15:40:02;28.30;82.60
33955;DHT22;20233;50.804;7.126;2023-07-22T15:42:28;28.40;81.40
33955;DHT22;20233;50.804;7.126;2023-07-22T15:44:53;28.20;83.50